Time;durP1;ratioP1;P1;durP2;ratioP2;P2;SDS_P1;SDS_P2;PMS_P1;PMS_P2;Temp;Humidity;BMP_temperature;BMP_pressure;BME280_temperature;BME280_humidity;BME280_pressure;Samples;Min_cycle;Max_cycle;Signal;HPM_P1;HPM_P2
2023/10/07 00:02:15;;;;;;;14.43;4.07;;;;;;;;;;4964075;28;20051;-55
2023/10/07 00:04:44;;;;;;;40.75;5.85;;;;;;;;;;4968785;28;20054;-54
2023/10/07 00:07:11;;;;;;;22.52;4.03;;;;;;;;;;4965606;28;20046;-54
2023/10/07 00:09:43;;;;;;;59.35;6.20;;;;;;;;;;4964157;28;20054;-52
2023/10/07 00:12:14;;;;;;;30.35;5.28;;;;;;;;;;4962707;28;20496;-54
2023/10/07 00:14:41;;;;;;;18.25;3.50;;;;;;;;;;4964363;28;20050;-55
2023/10/07 00:17:16;;;;;;;22.80;4.13;;;;;;;;;;4961924;28;20047;-51
2023/10/07 00:19:46;;;;;;;36.90;4.72;;;;;;;;;;4966937;28;20118;-54
2023/10/07 00:22:14;;;;;;;37.03;5.28;;;;;;;;;;4966296;28;20043;-55
2023/10/07 00:24:43;;;;;;;53.28;6.22;;;;;;;;;;4959971;28;20047;-57
2023/10/07 00:27:26;;;;;;;24.70;4.88;;;;;;;;;;4969454;28;20133;-56
2023/10/07 00:30:00;;;;;;;;;;;;;;;;;;4963992;28;20047;-49
2023/10/07 00:32:28;;;;;;;23.08;4.22;;;;;;;;;;4963746;28;19949;-53
2023/10/07 00:34:56;;;;;;;23.92;3.97;;;;;;;;;;4964302;28;20058;-55
2023/10/07 00:37:24;;;;;;;31.10;4.68;;;;;;;;;;4964249;28;20043;-57
2023/10/07 00:39:52;;;;;;;73.28;6.68;;;;;;;;;;4963662;28;20078;-55
2023/10/07 00:42:19;;;;;;;22.60;3.95;;;;;;;;;;4964100;28;20496;-54
2023/10/07 00:44:47;;;;;;;22.15;3.90;;;;;;;;;;4965726;28;20094;-55
2023/10/07 00:47:14;;;;;;;18.85;4.10;;;;;;;;;;4966497;28;20555;-54
2023/10/07 00:49:54;;;;;;;31.15;4.45;;;;;;;;;;4966043;28;20035;-53
2023/10/07 00:52:29;;;;;;;30.80;5.25;;;;;;;;;;4967265;28;20153;-57
2023/10/07 00:57:35;;;;;;;27.13;4.35;;;;;;;;;;4968535;28;20051;-51
2023/10/07 01:06:09;;;;;;;32.88;5.15;;;;;;;;;;4912218;29;20139;-54
2023/10/07 01:08:38;;;;;;;;;;;;;;;;;;4909871;29;20052;-55
2023/10/07 01:11:24;;;;;;;37.22;4.97;;;;;;;;;;4912582;29;19927;-54
2023/10/07 01:13:50;;;;;;;31.55;5.05;;;;;;;;;;4911141;29;20048;-56
2023/10/07 01:16:27;;;;;;;33.40;4.55;;;;;;;;;;4912248;29;20044;-54
2023/10/07 01:18:59;;;;;;;56.78;5.55;;;;;;;;;;4909186;29;20155;-56
2023/10/07 01:21:33;;;;;;;23.95;4.20;;;;;;;;;;4912939;29;20502;-54
2023/10/07 01:24:05;;;;;;;35.33;4.65;;;;;;;;;;4912135;29;20621;-57
2023/10/07 01:26:39;;;;;;;39.13;4.60;;;;;;;;;;4896276;29;20079;-57
2023/10/07 01:29:16;;;;;;;36.05;5.10;;;;;;;;;;4909754;29;20095;-55
2023/10/07 01:31:59;;;;;;;27.60;4.32;;;;;;;;;;4912383;29;20059;-56
2023/10/07 01:34:30;;;;;;;35.58;4.85;;;;;;;;;;4911387;29;20100;-55
2023/10/07 01:37:00;;;;;;;35.67;4.95;;;;;;;;;;4911441;29;20247;-55
2023/10/07 01:39:40;;;;;;;24.73;4.30;;;;;;;;;;4909194;28;20066;-57
2023/10/07 01:42:12;;;;;;;33.83;5.07;;;;;;;;;;4961421;28;20564;-57
2023/10/07 01:44:40;;;;;;;39.92;5.68;;;;;;;;;;4963069;28;20129;-57
2023/10/07 01:47:23;;;;;;;43.53;5.32;;;;;;;;;;4959564;28;20051;-59
2023/10/07 01:49:53;;;;;;;36.10;5.33;;;;;;;;;;4970076;28;20057;-56
2023/10/07 01:52:27;;;;;;;25.30;4.20;;;;;;;;;;4961944;28;20665;-55
2023/10/07 01:54:54;;;;;;;47.22;5.47;;;;;;;;;;4963851;28;20177;-54
2023/10/07 01:57:21;;;;;;;29.48;4.65;;;;;;;;;;4957233;28;20070;-55
2023/10/07 01:59:48;;;;;;;56.88;6.70;;;;;;;;;;4964269;28;20117;-56
2023/10/07 02:02:15;;;;;;;79.30;7.55;;;;;;;;;;4946147;23;20054;-54
2023/10/07 02:04:46;;;;;;;31.52;4.50;;;;;;;;;;4967973;28;20063;-52
2023/10/07 02:07:14;;;;;;;30.73;5.40;;;;;;;;;;4965847;28;20047;-55
2023/10/07 02:09:42;;;;;;;26.10;4.63;;;;;;;;;;4965254;28;20046;-58
2023/10/07 02:12:18;;;;;;;29.30;4.43;;;;;;;;;;4967697;28;20054;-56
2023/10/07 02:14:44;;;;;;;32.17;5.45;;;;;;;;;;4979853;28;20039;-55
2023/10/07 02:17:15;;;;;;;59.67;6.85;;;;;;;;;;4965811;28;20043;-57
2023/10/07 02:19:43;;;;;;;20.58;4.40;;;;;;;;;;4966581;28;20093;-57
2023/10/07 02:22:22;;;;;;;35.45;5.65;;;;;;;;;;4963778;28;20081;-57
2023/10/07 02:25:02;;;;;;;16.80;4.32;;;;;;;;;;4966373;28;20051;-52
2023/10/07 02:27:38;;;;;;;29.17;4.13;;;;;;;;;;4969035;28;20138;-57
2023/10/07 02:30:05;;;;;;;28.90;4.65;;;;;;;;;;4968968;28;20049;-55
2023/10/07 02:32:33;;;;;;;27.33;4.53;;;;;;;;;;4967480;28;20125;-56
2023/10/07 02:35:01;;;;;;;19.23;4.45;;;;;;;;;;4964923;28;20042;-56
2023/10/07 02:37:38;;;;;;;23.60;5.07;;;;;;;;;;4968847;28;20069;-56
2023/10/07 02:40:35;;;;;;;21.67;4.03;;;;;;;;;;4965112;28;20053;-57
2023/10/07 02:43:08;;;;;;;18.92;4.63;;;;;;;;;;4969258;28;20065;-57
2023/10/07 02:45:39;;;;;;;16.27;4.27;;;;;;;;;;4969134;28;20472;-57
2023/10/07 02:48:11;;;;;;;15.43;3.97;;;;;;;;;;4964388;28;20413;-54
2023/10/07 02:50:44;;;;;;;38.28;5.18;;;;;;;;;;4941775;28;20035;-56
2023/10/07 02:53:14;;;;;;;61.58;6.38;;;;;;;;;;4969272;28;20043;-53
2023/10/07 02:55:48;;;;;;;26.10;4.97;;;;;;;;;;4954968;28;20043;-57
2023/10/07 02:58:25;;;;;;;18.75;3.90;;;;;;;;;;4968540;28;20374;-53
2023/10/07 03:00:58;;;;;;;32.33;5.90;;;;;;;;;;4964959;28;20051;-55
2023/10/07 03:05:59;;;;;;;24.73;4.85;;;;;;;;;;4967519;28;20039;-54
2023/10/07 03:08:40;;;;;;;35.40;4.40;;;;;;;;;;4964507;28;20100;-54
2023/10/07 03:11:24;;;;;;;23.90;3.63;;;;;;;;;;4962441;28;20047;-55
2023/10/07 03:13:56;;;;;;;40.90;4.82;;;;;;;;;;4967345;28;20547;-56
2023/10/07 03:18:56;;;;;;;37.00;4.03;;;;;;;;;;4965912;28;20043;-53
2023/10/07 03:21:35;;;;;;;32.63;4.68;;;;;;;;;;4976388;28;20046;-54
2023/10/07 03:24:07;;;;;;;21.15;3.80;;;;;;;;;;4963049;28;20051;-54
2023/10/07 03:26:34;;;;;;;53.13;5.85;;;;;;;;;;4965691;28;20049;-57
2023/10/07 03:29:05;;;;;;;30.52;4.35;;;;;;;;;;4963862;28;20152;-54
2023/10/07 03:31:47;;;;;;;30.50;5.20;;;;;;;;;;4962471;28;20047;-55
2023/10/07 03:34:14;;;;;;;28.30;4.30;;;;;;;;;;4965759;28;20043;-54
2023/10/07 03:36:45;;;;;;;16.40;3.72;;;;;;;;;;4962631;28;20050;-55
2023/10/07 03:41:52;;;;;;;19.67;4.50;;;;;;;;;;4965134;28;20041;-55
2023/10/07 03:44:20;;;;;;;71.00;6.50;;;;;;;;;;4966941;28;20469;-54
2023/10/07 03:46:47;;;;;;;27.75;4.38;;;;;;;;;;4967978;28;20122;-54
2023/10/07 03:49:15;;;;;;;18.52;3.40;;;;;;;;;;4965240;28;20047;-56
2023/10/07 03:54:30;;;;;;;25.13;3.75;;;;;;;;;;4967041;28;20043;-55
2023/10/07 03:56:59;;;;;;;35.67;4.63;;;;;;;;;;4964290;28;20072;-56
2023/10/07 03:59:32;;;;;;;35.05;4.82;;;;;;;;;;4948169;28;20447;-54
2023/10/07 04:01:59;;;;;;;22.65;3.70;;;;;;;;;;4980387;28;20055;-56
2023/10/07 04:04:26;;;;;;;52.10;5.72;;;;;;;;;;4966801;28;20039;-54
2023/10/07 04:06:52;;;;;;;19.48;3.53;;;;;;;;;;4968074;28;20039;-55
2023/10/07 04:09:27;;;;;;;42.08;4.70;;;;;;;;;;4963336;28;20038;-55
2023/10/07 04:11:53;;;;;;;35.63;4.90;;;;;;;;;;4978812;28;20134;-54
2023/10/07 04:14:30;;;;;;;81.13;7.28;;;;;;;;;;4964660;28;20089;-54
2023/10/07 04:17:11;;;;;;;25.42;3.85;;;;;;;;;;4963874;28;20047;-55
2023/10/07 04:19:42;;;;;;;28.70;4.43;;;;;;;;;;4964669;28;20122;-52
2023/10/07 04:22:09;;;;;;;30.63;4.45;;;;;;;;;;4960924;28;20378;-52
2023/10/07 04:24:38;;;;;;;22.75;3.70;;;;;;;;;;4963065;28;20039;-56
2023/10/07 04:27:06;;;;;;;16.77;3.78;;;;;;;;;;4966811;28;20066;-56
2023/10/07 04:29:33;;;;;;;37.35;4.10;;;;;;;;;;4964243;28;20038;-57
2023/10/07 04:32:13;;;;;;;24.67;4.03;;;;;;;;;;4962973;28;20554;-55
2023/10/07 04:37:38;;;;;;;20.45;3.38;;;;;;;;;;4963803;28;20049;-55
2023/10/07 04:42:52;;;;;;;18.85;3.85;;;;;;;;;;4965458;28;20071;-54
2023/10/07 04:45:36;;;;;;;26.42;4.00;;;;;;;;;;4961986;28;20043;-55
2023/10/07 04:48:24;;;;;;;25.27;3.67;;;;;;;;;;4967408;28;20041;-55
2023/10/07 04:51:05;;;;;;;25.27;3.67;;;;;;;;;;4970910;28;20057;-51
2023/10/07 04:53:39;;;;;;;32.92;4.22;;;;;;;;;;4966341;28;20082;-53
2023/10/07 04:56:06;;;;;;;32.65;3.47;;;;;;;;;;4967631;28;20043;-55
2023/10/07 04:58:33;;;;;;;21.65;3.67;;;;;;;;;;4961496;28;20117;-55
2023/10/07 05:01:22;;;;;;;26.75;4.55;;;;;;;;;;4962524;28;20043;-52
2023/10/07 05:03:52;;;;;;;23.40;4.13;;;;;;;;;;4966051;28;20039;-53
2023/10/07 05:06:19;;;;;;;25.48;3.33;;;;;;;;;;4962786;28;20495;-54
2023/10/07 05:08:49;;;;;;;24.88;3.83;;;;;;;;;;4966873;28;20491;-53
2023/10/07 05:11:19;;;;;;;70.03;5.80;;;;;;;;;;4961669;28;20151;-54
2023/10/07 05:13:46;;;;;;;22.75;4.45;;;;;;;;;;4962692;28;20043;-54
2023/10/07 05:16:14;;;;;;;21.10;3.70;;;;;;;;;;4964843;28;20075;-58
2023/10/07 05:18:41;;;;;;;10.75;3.60;;;;;;;;;;4960514;28;20047;-54
2023/10/07 05:21:08;;;;;;;43.13;5.18;;;;;;;;;;4967486;28;20118;-56
2023/10/07 05:23:36;;;;;;;64.63;7.15;;;;;;;;;;4962316;28;20038;-53
2023/10/07 05:26:03;;;;;;;32.15;4.65;;;;;;;;;;4954652;28;20053;-57
2023/10/07 05:28:33;;;;;;;20.15;3.97;;;;;;;;;;4965327;28;20043;-59
2023/10/07 05:31:03;;;;;;;25.90;4.38;;;;;;;;;;4963542;28;20046;-59
2023/10/07 05:33:34;;;;;;;34.83;3.75;;;;;;;;;;4945335;28;20077;-63
2023/10/07 05:36:24;;;;;;;14.90;3.65;;;;;;;;;;4967790;28;20126;-57
2023/10/07 05:38:52;;;;;;;25.60;4.78;;;;;;;;;;4965491;28;20474;-57
2023/10/07 05:41:22;;;;;;;41.78;4.68;;;;;;;;;;4962299;28;20214;-56
2023/10/07 05:43:51;;;;;;;13.63;3.15;;;;;;;;;;4962602;28;20059;-53
2023/10/07 05:46:19;;;;;;;23.45;4.18;;;;;;;;;;4963424;28;20122;-55
2023/10/07 05:48:46;;;;;;;27.90;4.30;;;;;;;;;;4960061;28;20476;-54
2023/10/07 05:51:13;;;;;;;17.30;4.53;;;;;;;;;;4964145;28;20039;-56
2023/10/07 05:53:42;;;;;;;30.13;4.80;;;;;;;;;;4963720;28;20042;-56
2023/10/07 05:56:10;;;;;;;26.65;4.28;;;;;;;;;;4965176;28;20496;-55
2023/10/07 05:58:40;;;;;;;19.08;4.05;;;;;;;;;;4965044;28;20047;-56
2023/10/07 06:01:11;;;;;;;32.35;4.45;;;;;;;;;;4962108;28;20058;-55
2023/10/07 06:03:38;;;;;;;19.55;3.95;;;;;;;;;;4964917;28;20042;-54
2023/10/07 06:06:06;;;;;;;17.40;4.43;;;;;;;;;;4958515;28;20093;-56
2023/10/07 06:08:33;;;;;;;27.70;4.35;;;;;;;;;;4961630;28;20057;-55
2023/10/07 06:11:00;;;;;;;31.38;4.63;;;;;;;;;;4965378;28;20117;-54
2023/10/07 06:13:28;;;;;;;18.17;3.95;;;;;;;;;;4964964;28;20461;-56
2023/10/07 06:15:56;;;;;;;29.10;4.80;;;;;;;;;;4964098;28;20460;-57
2023/10/07 06:18:23;;;;;;;27.55;4.47;;;;;;;;;;4962678;28;20070;-54
2023/10/07 06:20:51;;;;;;;30.42;4.25;;;;;;;;;;4948004;28;20693;-56
2023/10/07 06:23:24;;;;;;;81.72;9.75;;;;;;;;;;4960324;28;20043;-55
2023/10/07 06:25:52;;;;;;;30.92;4.28;;;;;;;;;;4963085;28;20054;-55
2023/10/07 06:28:29;;;;;;;26.48;4.47;;;;;;;;;;4965639;28;20039;-54
2023/10/07 06:31:13;;;;;;;25.27;3.90;;;;;;;;;;4965104;28;20070;-55
2023/10/07 06:33:41;;;;;;;21.43;3.67;;;;;;;;;;4961456;28;20055;-54
2023/10/07 06:36:10;;;;;;;16.83;3.97;;;;;;;;;;4961588;28;20058;-58
2023/10/07 06:38:51;;;;;;;38.88;4.40;;;;;;;;;;4960779;28;20548;-58
2023/10/07 06:41:19;;;;;;;68.35;6.97;;;;;;;;;;4962311;28;20054;-55
2023/10/07 06:43:50;;;;;;;27.25;4.65;;;;;;;;;;4963062;28;20548;-55
2023/10/07 06:46:20;;;;;;;21.58;3.97;;;;;;;;;;4968608;28;20094;-57
2023/10/07 06:48:50;;;;;;;22.73;3.88;;;;;;;;;;4964407;28;20067;-57
2023/10/07 06:51:16;;;;;;;36.88;4.22;;;;;;;;;;4966738;28;20047;-55
2023/10/07 06:53:43;;;;;;;26.20;3.75;;;;;;;;;;4968832;28;20039;-58
2023/10/07 06:56:23;;;;;;;27.65;4.30;;;;;;;;;;4964778;28;20066;-58
2023/10/07 06:58:53;;;;;;;21.17;3.47;;;;;;;;;;4980154;28;20058;-57
2023/10/07 07:04:18;;;;;;;26.90;3.53;;;;;;;;;;4971344;28;20126;-56
2023/10/07 07:06:57;;;;;;;35.20;4.05;;;;;;;;;;4967323;28;20469;-56
2023/10/07 07:12:32;;;;;;;28.00;4.03;;;;;;;;;;4914462;29;20055;-55
2023/10/07 07:15:05;;;;;;;40.33;4.50;;;;;;;;;;4914545;29;20052;-56
2023/10/07 07:22:39;;;;;;;25.02;3.10;;;;;;;;;;4915040;29;20059;-54
2023/10/07 07:25:12;;;;;;;13.18;2.72;;;;;;;;;;4914523;29;20066;-54
2023/10/07 07:27:45;;;;;;;29.40;4.50;;;;;;;;;;4913966;29;20051;-55
2023/10/07 07:30:30;;;;;;;19.23;3.20;;;;;;;;;;4914768;29;20142;-55
2023/10/07 07:33:06;;;;;;;29.73;3.70;;;;;;;;;;4912938;29;20425;-55
2023/10/07 07:35:43;;;;;;;42.85;4.32;;;;;;;;;;4914025;29;20072;-56
2023/10/07 07:43:53;;;;;;;26.58;3.42;;;;;;;;;;4869235;29;20065;-54
2023/10/07 07:46:51;;;;;;;34.00;4.32;;;;;;;;;;4876285;29;20495;-55
2023/10/07 07:49:27;;;;;;;29.05;4.03;;;;;;;;;;4875483;29;20132;-56
2023/10/07 07:51:55;;;;;;;22.02;3.28;;;;;;;;;;4873829;29;20067;-55
2023/10/07 07:54:24;;;;;;;26.52;4.10;;;;;;;;;;4876111;29;20519;-54
2023/10/07 07:56:54;;;;;;;44.08;4.80;;;;;;;;;;4874951;29;20041;-55
2023/10/07 07:59:22;;;;;;;78.18;6.45;;;;;;;;;;4874086;29;20045;-57
2023/10/07 08:02:01;;;;;;;39.80;4.18;;;;;;;;;;4861330;29;20053;-57
2023/10/07 08:04:37;;;;;;;27.80;3.25;;;;;;;;;;4875064;29;20144;-57
2023/10/07 08:07:06;;;;;;;26.58;3.58;;;;;;;;;;4874351;29;20136;-55
2023/10/07 08:09:37;;;;;;;31.63;5.22;;;;;;;;;;4872647;29;20053;-57
2023/10/07 08:12:05;;;;;;;22.23;3.67;;;;;;;;;;4876015;29;20444;-57
2023/10/07 08:14:33;;;;;;;41.67;4.38;;;;;;;;;;4873665;29;20156;-55
2023/10/07 08:17:00;;;;;;;35.53;4.28;;;;;;;;;;4876875;29;20399;-55
2023/10/07 08:19:30;;;;;;;29.88;3.92;;;;;;;;;;4872454;29;20053;-56
2023/10/07 08:21:57;;;;;;;18.77;2.50;;;;;;;;;;4968179;28;20051;-56
2023/10/07 08:24:30;;;;;;;40.50;4.45;;;;;;;;;;4963707;28;20151;-58
2023/10/07 08:27:03;;;;;;;31.50;3.80;;;;;;;;;;4964396;28;20121;-58
2023/10/07 08:29:33;;;;;;;60.25;5.72;;;;;;;;;;4963420;28;20073;-57
2023/10/07 08:32:09;;;;;;;33.50;4.28;;;;;;;;;;4954931;28;20126;-54
2023/10/07 08:34:37;;;;;;;44.92;4.38;;;;;;;;;;4971073;28;20055;-52
2023/10/07 08:37:08;;;;;;;33.53;4.13;;;;;;;;;;4960095;28;20131;-55
2023/10/07 08:39:44;;;;;;;42.58;3.97;;;;;;;;;;4962947;28;20046;-58
2023/10/07 08:42:18;;;;;;;44.25;4.75;;;;;;;;;;4967973;28;20035;-54
2023/10/07 08:44:51;;;;;;;27.95;3.00;;;;;;;;;;4964709;28;20049;-54
2023/10/07 08:47:21;;;;;;;60.67;5.18;;;;;;;;;;4961159;28;20425;-55
2023/10/07 08:49:48;;;;;;;56.22;4.63;;;;;;;;;;4985503;28;20094;-53
2023/10/07 08:52:18;;;;;;;60.65;5.35;;;;;;;;;;4964191;28;20035;-58
2023/10/07 08:54:47;;;;;;;36.33;4.25;;;;;;;;;;4962448;28;20471;-55
2023/10/07 08:57:19;;;;;;;25.58;3.25;;;;;;;;;;4963488;28;20102;-55
2023/10/07 08:59:52;;;;;;;33.30;3.55;;;;;;;;;;4964325;28;20479;-56
2023/10/07 09:02:30;;;;;;;59.67;5.60;;;;;;;;;;4961466;28;20404;-60
2023/10/07 09:04:58;;;;;;;28.75;3.30;;;;;;;;;;4965157;28;20122;-58
2023/10/07 09:07:36;;;;;;;26.08;3.33;;;;;;;;;;4963388;28;20074;-56
2023/10/07 09:10:28;;;;;;;42.28;3.78;;;;;;;;;;4964621;28;20678;-58
2023/10/07 09:12:56;;;;;;;18.63;2.78;;;;;;;;;;4962020;28;20054;-58
2023/10/07 09:15:26;;;;;;;25.45;3.42;;;;;;;;;;4964257;28;20028;-54
2023/10/07 09:18:06;;;;;;;37.80;3.63;;;;;;;;;;4961933;28;20047;-54
2023/10/07 09:20:36;;;;;;;60.65;5.10;;;;;;;;;;4964417;28;21059;-56
2023/10/07 09:23:14;;;;;;;26.70;2.97;;;;;;;;;;4961948;28;20054;-56
2023/10/07 09:25:46;;;;;;;26.88;3.03;;;;;;;;;;4964473;28;20600;-57
2023/10/07 09:28:18;;;;;;;17.90;3.42;;;;;;;;;;4963011;28;20715;-57
2023/10/07 09:30:48;;;;;;;41.42;3.97;;;;;;;;;;4965965;28;20113;-55
2023/10/07 09:33:21;;;;;;;30.98;4.20;;;;;;;;;;4963720;28;20487;-57
2023/10/07 09:36:00;;;;;;;35.67;3.80;;;;;;;;;;4964566;28;20039;-53
2023/10/07 09:38:34;;;;;;;53.90;4.63;;;;;;;;;;4963788;28;20569;-56
2023/10/07 09:41:23;;;;;;;35.00;3.35;;;;;;;;;;4964453;28;20043;-53
2023/10/07 09:43:57;;;;;;;18.23;2.53;;;;;;;;;;4980010;28;20497;-57
2023/10/07 09:46:39;;;;;;;42.95;4.25;;;;;;;;;;4964187;28;20130;-56
2023/10/07 09:49:06;;;;;;;24.88;3.00;;;;;;;;;;4960247;28;20508;-57
2023/10/07 09:51:44;;;;;;;35.97;3.80;;;;;;;;;;4965737;28;20050;-56
2023/10/07 09:54:22;;;;;;;29.30;3.45;;;;;;;;;;4948904;28;20042;-54
2023/10/07 09:57:06;;;;;;;48.60;4.35;;;;;;;;;;4963662;28;20121;-56
2023/10/07 09:59:40;;;;;;;71.53;5.40;;;;;;;;;;4963108;28;20043;-56
2023/10/07 10:02:16;;;;;;;;;;;;;;;;;;4962810;28;20051;-54
2023/10/07 10:04:59;;;;;;;40.90;3.92;;;;;;;;;;4967513;28;19929;-58
2023/10/07 10:07:32;;;;;;;21.10;2.90;;;;;;;;;;4963772;28;20077;-57
2023/10/07 10:10:07;;;;;;;24.83;2.95;;;;;;;;;;4960711;28;20040;-54
2023/10/07 10:21:00;;;;;;;32.67;3.20;;;;;;;;;;4967411;28;20485;-56
2023/10/07 10:23:32;;;;;;;70.55;5.15;;;;;;;;;;4965717;28;20560;-57
2023/10/07 10:26:13;;;;;;;51.00;3.80;;;;;;;;;;4967684;28;20066;-54
2023/10/07 10:28:43;;;;;;;27.55;2.78;;;;;;;;;;4972084;28;20500;-57
2023/10/07 10:31:18;;;;;;;30.25;3.35;;;;;;;;;;4966751;28;20068;-55
2023/10/07 10:33:49;;;;;;;32.35;3.80;;;;;;;;;;4965456;28;20503;-55
2023/10/07 10:36:21;;;;;;;21.60;2.58;;;;;;;;;;4969021;28;20547;-53
2023/10/07 10:38:48;;;;;;;21.83;2.47;;;;;;;;;;4965518;28;20551;-55
2023/10/07 10:41:25;;;;;;;34.67;3.45;;;;;;;;;;4966349;28;20047;-56
2023/10/07 10:44:01;;;;;;;22.77;3.08;;;;;;;;;;4968013;28;20039;-54
2023/10/07 10:46:28;;;;;;;33.70;3.22;;;;;;;;;;4966977;28;20051;-56
2023/10/07 10:48:55;;;;;;;42.25;3.67;;;;;;;;;;4966487;28;20113;-57
2023/10/07 10:51:27;;;;;;;30.98;3.75;;;;;;;;;;4960224;28;20043;-57
2023/10/07 10:53:56;;;;;;;26.92;3.53;;;;;;;;;;4968460;28;20054;-57
2023/10/07 10:56:22;;;;;;;50.83;4.35;;;;;;;;;;4965309;28;20038;-57
2023/10/07 10:58:53;;;;;;;43.25;3.75;;;;;;;;;;4963636;28;20098;-54
2023/10/07 11:01:20;;;;;;;59.45;4.65;;;;;;;;;;4967775;28;20077;-56
2023/10/07 11:03:49;;;;;;;29.67;2.72;;;;;;;;;;4965921;28;20067;-55
2023/10/07 11:06:17;;;;;;;30.02;3.13;;;;;;;;;;4969527;28;20031;-57
2023/10/07 11:08:44;;;;;;;20.70;2.45;;;;;;;;;;4964800;28;20548;-55
2023/10/07 11:11:12;;;;;;;32.88;3.13;;;;;;;;;;4965214;28;20043;-54
2023/10/07 11:13:43;;;;;;;42.58;3.88;;;;;;;;;;4966535;28;20043;-57
2023/10/07 11:16:10;;;;;;;28.00;3.08;;;;;;;;;;4962681;28;20035;-53
2023/10/07 11:18:46;;;;;;;25.30;3.08;;;;;;;;;;4949914;28;20130;-55
2023/10/07 11:21:15;;;;;;;30.02;3.22;;;;;;;;;;4960357;28;20037;-57
2023/10/07 11:23:54;;;;;;;34.67;3.40;;;;;;;;;;4966074;28;20151;-56
2023/10/07 11:26:24;;;;;;;43.22;3.97;;;;;;;;;;4959969;28;20518;-55
2023/10/07 11:28:52;;;;;;;16.73;2.20;;;;;;;;;;4965769;28;20072;-56
2023/10/07 11:31:28;;;;;;;21.90;2.10;;;;;;;;;;4965571;28;20098;-56
2023/10/07 11:33:55;;;;;;;19.70;2.25;;;;;;;;;;4966199;28;20042;-55
2023/10/07 11:36:23;;;;;;;19.98;2.38;;;;;;;;;;4964269;28;20047;-57
2023/10/07 11:38:50;;;;;;;30.50;2.92;;;;;;;;;;4966697;28;20045;-56
2023/10/07 11:41:17;;;;;;;21.75;2.25;;;;;;;;;;4966234;28;20076;-58
2023/10/07 11:43:44;;;;;;;22.65;2.38;;;;;;;;;;4965330;28;20042;-54
2023/10/07 11:46:13;;;;;;;15.20;1.98;;;;;;;;;;4964455;28;20043;-56
2023/10/07 11:48:41;;;;;;;26.48;2.90;;;;;;;;;;4966995;28;20436;-55
2023/10/07 11:51:08;;;;;;;27.50;2.40;;;;;;;;;;4964257;28;20520;-55
2023/10/07 11:53:35;;;;;;;84.40;5.88;;;;;;;;;;4964946;28;20043;-58
2023/10/07 11:56:05;;;;;;;34.78;2.92;;;;;;;;;;4965909;28;20043;-56
2023/10/07 11:58:32;;;;;;;27.88;2.92;;;;;;;;;;4963463;28;20496;-57
2023/10/07 12:01:02;;;;;;;21.95;2.40;;;;;;;;;;4964961;28;20039;-58
2023/10/07 12:03:32;;;;;;;33.75;3.13;;;;;;;;;;4968396;28;20039;-55
2023/10/07 12:05:59;;;;;;;24.30;2.72;;;;;;;;;;4958481;28;20042;-55
2023/10/07 12:08:26;;;;;;;49.83;4.03;;;;;;;;;;4963691;28;20039;-57
2023/10/07 12:10:56;;;;;;;48.92;3.67;;;;;;;;;;4965081;28;20449;-54
2023/10/07 12:13:26;;;;;;;29.70;2.83;;;;;;;;;;4965493;28;20047;-57
2023/10/07 12:15:53;;;;;;;22.63;2.65;;;;;;;;;;4967176;28;20113;-56
2023/10/07 12:18:31;;;;;;;35.25;3.17;;;;;;;;;;4965013;28;20038;-58
2023/10/07 12:21:00;;;;;;;32.88;3.55;;;;;;;;;;4968268;28;20039;-55
2023/10/07 12:23:28;;;;;;;41.45;3.97;;;;;;;;;;4964906;28;20055;-57
2023/10/07 12:25:55;;;;;;;40.97;3.42;;;;;;;;;;4964966;28;20050;-57
2023/10/07 12:28:21;;;;;;;27.00;2.90;;;;;;;;;;4966329;28;20126;-58
2023/10/07 12:30:49;;;;;;;22.67;2.97;;;;;;;;;;4964821;28;20049;-54
2023/10/07 12:33:18;;;;;;;27.52;3.20;;;;;;;;;;4964163;28;20058;-54
2023/10/07 12:36:01;;;;;;;20.70;2.50;;;;;;;;;;4965198;28;20444;-56
2023/10/07 12:38:28;;;;;;;73.13;6.28;;;;;;;;;;4962185;28;20067;-57
2023/10/07 12:40:55;;;;;;;37.13;3.72;;;;;;;;;;4965937;28;20063;-54
2023/10/07 12:43:22;;;;;;;26.70;3.42;;;;;;;;;;4964609;28;20039;-56
2023/10/07 12:45:49;;;;;;;39.00;3.80;;;;;;;;;;4962514;28;20447;-56
2023/10/07 12:48:16;;;;;;;23.08;2.88;;;;;;;;;;4967855;28;20035;-58
2023/10/07 12:50:43;;;;;;;32.95;3.05;;;;;;;;;;4947504;28;20591;-56
2023/10/07 12:53:10;;;;;;;26.75;2.92;;;;;;;;;;4966159;28;20042;-55
2023/10/07 12:55:39;;;;;;;21.63;2.70;;;;;;;;;;4961769;28;20388;-57
2023/10/07 12:58:08;;;;;;;24.38;2.60;;;;;;;;;;4966872;28;20392;-55
2023/10/07 13:00:36;;;;;;;26.55;2.85;;;;;;;;;;4962488;28;20465;-54
2023/10/07 13:03:05;;;;;;;25.63;3.50;;;;;;;;;;4965915;28;20055;-58
2023/10/07 13:05:35;;;;;;;54.50;4.90;;;;;;;;;;4964579;28;20049;-54
2023/10/07 13:08:02;;;;;;;27.23;2.90;;;;;;;;;;4962018;28;20393;-57
2023/10/07 13:10:32;;;;;;;32.05;3.67;;;;;;;;;;4963111;28;20046;-55
2023/10/07 13:13:07;;;;;;;44.47;3.97;;;;;;;;;;4961319;28;20114;-56
2023/10/07 13:15:35;;;;;;;46.15;4.45;;;;;;;;;;4960068;28;20058;-57
2023/10/07 13:18:02;;;;;;;33.50;4.22;;;;;;;;;;4963692;28;20054;-54
2023/10/07 13:20:30;;;;;;;82.70;6.55;;;;;;;;;;4965876;28;20058;-57
2023/10/07 13:22:57;;;;;;;41.00;4.22;;;;;;;;;;4964152;28;20100;-55
2023/10/07 13:25:26;;;;;;;37.17;3.50;;;;;;;;;;4960927;28;20122;-55
2023/10/07 13:27:55;;;;;;;43.97;4.20;;;;;;;;;;4963642;28;20125;-55
2023/10/07 13:30:25;;;;;;;28.08;3.10;;;;;;;;;;4958145;28;20043;-58
2023/10/07 13:32:54;;;;;;;29.27;3.28;;;;;;;;;;4962325;28;20035;-56
2023/10/07 13:35:22;;;;;;;28.88;3.00;;;;;;;;;;4959607;28;20481;-55
2023/10/07 13:37:50;;;;;;;19.88;2.50;;;;;;;;;;4963893;28;20065;-52
2023/10/07 13:40:17;;;;;;;35.10;3.67;;;;;;;;;;4963467;28;20039;-57
2023/10/07 13:42:48;;;;;;;32.67;3.17;;;;;;;;;;4963698;28;20062;-55
2023/10/07 13:45:14;;;;;;;30.02;3.67;;;;;;;;;;4967375;28;20105;-56
2023/10/07 13:47:42;;;;;;;52.03;5.22;;;;;;;;;;4963108;28;20042;-54
2023/10/07 13:50:15;;;;;;;46.05;4.50;;;;;;;;;;4963417;28;20039;-57
2023/10/07 13:52:58;;;;;;;30.60;3.47;;;;;;;;;;4963740;28;20043;-57
2023/10/07 13:58:14;;;;;;;20.65;2.80;;;;;;;;;;4966555;28;20479;-54
2023/10/07 14:00:45;;;;;;;45.42;4.65;;;;;;;;;;4961300;28;20066;-53
2023/10/07 14:03:19;;;;;;;31.85;3.38;;;;;;;;;;4962663;28;20051;-54
2023/10/07 14:05:49;;;;;;;45.70;4.75;;;;;;;;;;4961953;28;20043;-57
2023/10/07 14:08:20;;;;;;;22.92;3.22;;;;;;;;;;4963039;28;20098;-56
2023/10/07 14:10:50;;;;;;;30.23;3.22;;;;;;;;;;4964229;28;20477;-55
2023/10/07 14:13:19;;;;;;;32.03;4.10;;;;;;;;;;4962917;28;20102;-56
2023/10/07 14:15:49;;;;;;;23.00;3.53;;;;;;;;;;4961173;28;20038;-55
2023/10/07 14:18:19;;;;;;;25.52;3.50;;;;;;;;;;4966995;28;20479;-56
2023/10/07 14:21:07;;;;;;;44.80;4.28;;;;;;;;;;4979368;28;20161;-56
2023/10/07 14:23:34;;;;;;;63.67;5.18;;;;;;;;;;4962270;28;20034;-52
2023/10/07 14:26:02;;;;;;;43.65;5.30;;;;;;;;;;4961380;28;20094;-56
2023/10/07 14:28:30;;;;;;;26.17;3.75;;;;;;;;;;4963775;28;20077;-56
2023/10/07 14:30:57;;;;;;;36.83;4.70;;;;;;;;;;4960280;28;20036;-56
2023/10/07 14:33:24;;;;;;;38.83;5.28;;;;;;;;;;4965805;28;20034;-54
2023/10/07 14:35:52;;;;;;;36.55;4.43;;;;;;;;;;4963997;28;20038;-56
2023/10/07 14:38:20;;;;;;;25.02;3.28;;;;;;;;;;4961373;28;20058;-57
2023/10/07 14:40:50;;;;;;;21.02;3.22;;;;;;;;;;4966953;28;20038;-55
2023/10/07 14:43:18;;;;;;;19.50;2.92;;;;;;;;;;4961468;28;20074;-55
2023/10/07 14:45:48;;;;;;;33.80;3.67;;;;;;;;;;4963457;28;20054;-56
2023/10/07 14:48:16;;;;;;;14.50;3.03;;;;;;;;;;4957717;28;20067;-53
2023/10/07 14:50:43;;;;;;;46.97;4.60;;;;;;;;;;4964134;28;20126;-56
2023/10/07 14:53:12;;;;;;;22.38;3.38;;;;;;;;;;4960414;28;20071;-58
2023/10/07 14:55:44;;;;;;;31.48;3.38;;;;;;;;;;4964593;28;20053;-57
2023/10/07 14:58:13;;;;;;;43.75;4.93;;;;;;;;;;4944584;28;20049;-55
2023/10/07 15:00:46;;;;;;;33.70;3.97;;;;;;;;;;4966007;28;20039;-55
2023/10/07 15:03:16;;;;;;;26.30;4.65;;;;;;;;;;4960290;28;20101;-56
2023/10/07 15:05:44;;;;;;;46.47;7.15;;;;;;;;;;4964688;28;20388;-56
2023/10/07 15:08:16;;;;;;;32.53;3.45;;;;;;;;;;4967285;28;20051;-54
2023/10/07 15:10:44;;;;;;;17.92;3.17;;;;;;;;;;4971310;28;20043;-57
2023/10/07 15:13:10;;;;;;;39.45;4.78;;;;;;;;;;4966322;28;20055;-57
2023/10/07 15:15:41;;;;;;;36.38;4.70;;;;;;;;;;4969969;28;20358;-54
2023/10/07 15:18:09;;;;;;;43.42;4.65;;;;;;;;;;4966001;28;20039;-55
2023/10/07 15:20:36;;;;;;;61.10;6.18;;;;;;;;;;4964710;28;20042;-54
2023/10/07 15:23:04;;;;;;;21.08;2.90;;;;;;;;;;4966957;28;20445;-56
2023/10/07 15:25:31;;;;;;;21.75;3.47;;;;;;;;;;4966606;28;20101;-54
2023/10/07 15:27:57;;;;;;;34.00;5.25;;;;;;;;;;4967113;28;20051;-54
2023/10/07 15:30:24;;;;;;;30.00;4.43;;;;;;;;;;4964334;28;20444;-57
2023/10/07 15:32:51;;;;;;;38.80;4.38;;;;;;;;;;4966323;28;20043;-56
2023/10/07 15:35:18;;;;;;;65.05;5.97;;;;;;;;;;4967018;28;20035;-54
2023/10/07 15:37:45;;;;;;;30.55;4.05;;;;;;;;;;4965741;28;20488;-54
2023/10/07 15:40:14;;;;;;;36.30;4.95;;;;;;;;;;4963356;28;20110;-58
2023/10/07 15:42:42;;;;;;;37.90;4.25;;;;;;;;;;4967403;28;20066;-56
2023/10/07 15:45:13;;;;;;;30.27;3.58;;;;;;;;;;4965240;28;20393;-56
2023/10/07 15:47:41;;;;;;;88.25;7.63;;;;;;;;;;4965039;28;20632;-56